logo dgac
Viernes 01 de Julio del 2022
Buscar por aerodromo o helipuerto
Ingrese nombre de aeródromo, localidad o designador OACI:

Aeródromo: Cabo 1° Juan Román (PUB) (SCAS)

Ubicación: Puerto Aisén, XI Región, Chile (45º 23' 57'' S, 72º 40' 12'' W) Ver ubicación en el mapa

Pistas

Orientación Dimensión Pendiente Superficie Resistencia APCH THR RWY PAPI
07/25 1300 x 23 ASPH PCN 25 F/A/Y/U No No
Horas de operación HJ
Elevación 10 m / 32 ft
Otra Información Adm : DGAC.
Uso : PUB
TEL : 672332599
Ubicado a 500 m al Este de Puerto Aysén
email : aro.aysen@dgac.gob.cl

Cámara de Aeródromo www.dgac.gob.cl

Otra información ver AIP-Chile Volumen I AD 3.9-15.8-P

CCCM/FCCV Descargar
andera de Chile
Mapa de Cabo 1° Juan Román (PUB) (SCAS)

Último METAR

METAR SCAS 011400Z 00000KT 6000 -RA SCT010 OVC015 03/03 Q1005

Último TAF

No hay tafs registrados para este aeródromo

Últimas fotos cámaras

Imagen aerodromo Cabo 1° Juan Román (PUB) (SCAS) Este tomada el 01-07-2022 02:42:48 Imagen aerodromo Cabo 1° Juan Román (PUB) (SCAS) Oeste tomada el 01-07-2022 02:46:49

Último NOTAM

C2726/22 NOTAMN Q)SCTZ/QMXLX/IV/M/A/000/999/4524S07240W005 A)SCAS B)2206082015 C)PERM E)TWY ALPHA, BRAVO Y CHARLIE CTN DEBIDO A ZANJAS Y OBRAS DE ARTE RECOLECCION AGUAS LLUVIAS A 5M BORDE TWY